Time;durP1;ratioP1;P1;durP2;ratioP2;P2;SDS_P1;SDS_P2;PMS_P1;PMS_P2;Temp;Humidity;BMP_temperature;BMP_pressure;BME280_temperature;BME280_humidity;BME280_pressure;Samples;Min_cycle;Max_cycle;Signal;HPM_P1;HPM_P2
2021/06/28 00:01:45;;;;;;;8.50;4.40;;;;;;;;;;5012129;28;20018;-66
2021/06/28 00:04:11;;;;;;;7.80;4.35;;;;;;;;;;5013624;28;20473;-66
2021/06/28 00:06:38;;;;;;;10.35;4.57;;;;;;;;;;5012069;28;20129;-66
2021/06/28 00:09:04;;;;;;;7.28;4.50;;;;;;;;;;5011790;28;20053;-64
2021/06/28 00:11:30;;;;;;;16.73;5.13;;;;;;;;;;5013185;28;20109;-64
2021/06/28 00:13:57;;;;;;;12.25;4.95;;;;;;;;;;5013215;28;20121;-65
2021/06/28 00:16:24;;;;;;;11.20;4.90;;;;;;;;;;5013528;28;20116;-64
2021/06/28 00:18:51;;;;;;;9.90;5.18;;;;;;;;;;5013327;28;20022;-66
2021/06/28 00:21:18;;;;;;;9.55;4.28;;;;;;;;;;5013342;28;20383;-63
2021/06/28 00:23:44;;;;;;;12.75;5.20;;;;;;;;;;5013195;28;20026;-64
2021/06/28 00:26:10;;;;;;;9.57;4.63;;;;;;;;;;5011857;28;20531;-64
2021/06/28 00:28:37;;;;;;;7.50;4.95;;;;;;;;;;5013181;28;20168;-63
2021/06/28 00:31:03;;;;;;;12.68;5.10;;;;;;;;;;5013144;28;20513;-64
2021/06/28 00:33:30;;;;;;;9.50;5.50;;;;;;;;;;5012742;28;20527;-65
2021/06/28 00:35:56;;;;;;;8.90;5.65;;;;;;;;;;5013226;28;20049;-65
2021/06/28 00:38:22;;;;;;;9.60;4.53;;;;;;;;;;5011789;28;20184;-64
2021/06/28 00:40:49;;;;;;;12.82;5.07;;;;;;;;;;5013064;28;20490;-64
2021/06/28 00:43:16;;;;;;;10.10;5.65;;;;;;;;;;5012790;28;20034;-65
2021/06/28 00:45:43;;;;;;;15.43;5.80;;;;;;;;;;5013060;28;20018;-65
2021/06/28 00:48:11;;;;;;;13.07;5.85;;;;;;;;;;5013011;28;20022;-64
2021/06/28 00:50:39;;;;;;;10.27;5.70;;;;;;;;;;5011689;28;20544;-64
2021/06/28 00:53:08;;;;;;;14.48;5.32;;;;;;;;;;5012867;28;20073;-65
2021/06/28 00:55:34;;;;;;;10.75;5.65;;;;;;;;;;5011641;28;20437;-64
2021/06/28 00:58:01;;;;;;;28.70;5.85;;;;;;;;;;5011634;28;20037;-65
2021/06/28 01:00:27;;;;;;;14.55;5.53;;;;;;;;;;5012966;28;20057;-63
2021/06/28 01:02:55;;;;;;;12.43;5.13;;;;;;;;;;5011531;28;20377;-63
2021/06/28 01:05:23;;;;;;;8.45;5.38;;;;;;;;;;5012846;28;20036;-65
2021/06/28 01:07:50;;;;;;;12.05;5.10;;;;;;;;;;5012839;28;20018;-64
2021/06/28 01:10:18;;;;;;;13.98;5.40;;;;;;;;;;5012886;28;20018;-63
2021/06/28 01:12:44;;;;;;;10.65;5.60;;;;;;;;;;5011191;28;20072;-63
2021/06/28 01:15:11;;;;;;;11.45;5.93;;;;;;;;;;5011079;28;20041;-63
2021/06/28 01:17:38;;;;;;;16.70;6.07;;;;;;;;;;5012675;28;20026;-64
2021/06/28 01:20:15;;;;;;;10.25;5.63;;;;;;;;;;5012754;28;20153;-65
2021/06/28 01:22:48;;;;;;;13.07;5.47;;;;;;;;;;5012805;28;20029;-64
2021/06/28 01:25:18;;;;;;;12.05;5.43;;;;;;;;;;5016211;28;20505;-64
2021/06/28 01:27:45;;;;;;;10.82;5.65;;;;;;;;;;5016230;28;20073;-65
2021/06/28 01:30:13;;;;;;;10.55;5.75;;;;;;;;;;5016133;28;20022;-64
2021/06/28 01:32:41;;;;;;;15.13;6.32;;;;;;;;;;5016041;28;20022;-66
2021/06/28 01:35:08;;;;;;;17.08;6.70;;;;;;;;;;5015499;28;20092;-66
2021/06/28 01:37:34;;;;;;;8.18;5.25;;;;;;;;;;5014619;28;20550;-64
2021/06/28 01:40:01;;;;;;;13.35;5.30;;;;;;;;;;5015930;28;20080;-66
2021/06/28 01:42:30;;;;;;;8.80;5.90;;;;;;;;;;5015832;28;20045;-65
2021/06/28 01:44:56;;;;;;;13.27;6.57;;;;;;;;;;5015811;28;20033;-64
2021/06/28 01:47:23;;;;;;;11.02;6.40;;;;;;;;;;5014482;28;20121;-63
2021/06/28 01:49:49;;;;;;;9.05;5.22;;;;;;;;;;5014488;28;20474;-64
2021/06/28 01:52:15;;;;;;;13.10;6.07;;;;;;;;;;5015671;28;20038;-65
2021/06/28 01:54:41;;;;;;;10.85;7.32;;;;;;;;;;5015277;28;20034;-66
2021/06/28 01:57:08;;;;;;;14.52;6.97;;;;;;;;;;5015559;28;20030;-64
2021/06/28 01:59:36;;;;;;;13.82;7.05;;;;;;;;;;5014294;28;20493;-63
2021/06/28 02:02:03;;;;;;;12.93;7.22;;;;;;;;;;5015737;28;20112;-64
2021/06/28 02:04:29;;;;;;;7.97;5.78;;;;;;;;;;5015412;28;20569;-65
2021/06/28 02:06:56;;;;;;;8.00;5.43;;;;;;;;;;5015407;28;20105;-64
2021/06/28 02:09:23;;;;;;;8.98;5.68;;;;;;;;;;5015356;28;20034;-65
2021/06/28 02:11:49;;;;;;;13.30;5.15;;;;;;;;;;5015031;28;20026;-64
2021/06/28 02:14:16;;;;;;;13.80;5.53;;;;;;;;;;5014890;28;20060;-63
2021/06/28 02:16:43;;;;;;;10.63;5.68;;;;;;;;;;5014938;28;20097;-63
2021/06/28 02:19:09;;;;;;;10.55;5.78;;;;;;;;;;5013876;28;20101;-66
2021/06/28 02:21:36;;;;;;;9.45;5.93;;;;;;;;;;5013900;28;20044;-65
2021/06/28 02:24:02;;;;;;;10.82;5.47;;;;;;;;;;5015100;28;20049;-64
2021/06/28 02:26:28;;;;;;;8.45;5.03;;;;;;;;;;5013737;28;20541;-66
2021/06/28 02:28:54;;;;;;;13.60;5.20;;;;;;;;;;5015015;28;20026;-64
2021/06/28 02:31:22;;;;;;;10.15;5.22;;;;;;;;;;5014978;28;20025;-65
2021/06/28 02:33:50;;;;;;;9.60;4.55;;;;;;;;;;5014359;28;20034;-63
2021/06/28 02:36:16;;;;;;;9.13;5.22;;;;;;;;;;5014079;28;20072;-64
2021/06/28 02:38:43;;;;;;;13.07;5.28;;;;;;;;;;5014812;28;20028;-64
2021/06/28 02:41:10;;;;;;;11.20;4.85;;;;;;;;;;5014802;28;20105;-63
2021/06/28 02:43:37;;;;;;;7.13;4.22;;;;;;;;;;5014727;28;20458;-63
2021/06/28 02:46:03;;;;;;;10.07;5.18;;;;;;;;;;5014660;28;20072;-63
2021/06/28 02:48:30;;;;;;;7.18;5.28;;;;;;;;;;5013005;28;20061;-64
2021/06/28 02:50:56;;;;;;;10.48;5.13;;;;;;;;;;5013352;28;20034;-63
2021/06/28 02:53:22;;;;;;;11.82;5.05;;;;;;;;;;5013149;28;20073;-65
2021/06/28 02:55:50;;;;;;;10.45;4.47;;;;;;;;;;5013146;28;20547;-63
2021/06/28 02:58:17;;;;;;;9.52;4.75;;;;;;;;;;5014444;28;20026;-63
2021/06/28 03:00:43;;;;;;;9.88;4.15;;;;;;;;;;5013138;28;20076;-65
2021/06/28 03:03:10;;;;;;;13.10;5.10;;;;;;;;;;5013099;28;20076;-64
2021/06/28 03:05:36;;;;;;;13.80;5.40;;;;;;;;;;5014321;28;20100;-65
2021/06/28 03:08:05;;;;;;;18.15;5.22;;;;;;;;;;5014271;28;20022;-63
2021/06/28 03:10:32;;;;;;;16.25;4.85;;;;;;;;;;5014289;28;20022;-63
2021/06/28 03:12:58;;;;;;;14.13;5.28;;;;;;;;;;5013798;28;20383;-65
2021/06/28 03:15:25;;;;;;;13.43;4.38;;;;;;;;;;5012871;28;20036;-64
2021/06/28 03:17:51;;;;;;;11.07;5.13;;;;;;;;;;5012836;28;20021;-65
2021/06/28 03:20:18;;;;;;;9.07;4.45;;;;;;;;;;5014101;28;20062;-63
2021/06/28 03:22:45;;;;;;;13.00;5.40;;;;;;;;;;5014250;28;20028;-63
2021/06/28 03:25:13;;;;;;;15.48;6.15;;;;;;;;;;5012697;28;20060;-64
2021/06/28 03:27:39;;;;;;;11.25;5.22;;;;;;;;;;5013875;28;20021;-64
2021/06/28 03:30:07;;;;;;;12.98;5.15;;;;;;;;;;5013983;28;20057;-63
2021/06/28 03:32:33;;;;;;;8.18;4.70;;;;;;;;;;5013559;28;20490;-63
2021/06/28 03:34:59;;;;;;;8.93;4.90;;;;;;;;;;5012050;28;20053;-65
2021/06/28 03:37:26;;;;;;;10.00;4.55;;;;;;;;;;5013760;28;20044;-64
2021/06/28 03:39:52;;;;;;;9.75;4.72;;;;;;;;;;5013646;28;20378;-65
2021/06/28 03:42:18;;;;;;;16.20;4.85;;;;;;;;;;5013670;28;20459;-64
2021/06/28 03:44:44;;;;;;;18.30;5.38;;;;;;;;;;5013886;28;20395;-64
2021/06/28 03:47:10;;;;;;;17.88;4.75;;;;;;;;;;5013361;28;20026;-62
2021/06/28 03:49:37;;;;;;;15.43;4.95;;;;;;;;;;5013815;28;20530;-64
2021/06/28 03:52:03;;;;;;;13.95;5.47;;;;;;;;;;5013586;28;20113;-63
2021/06/28 03:54:29;;;;;;;17.58;9.50;;;;;;;;;;5012176;28;20030;-65
2021/06/28 03:56:56;;;;;;;19.17;9.32;;;;;;;;;;5013453;28;20050;-63
2021/06/28 03:59:22;;;;;;;17.13;8.13;;;;;;;;;;5013420;28;20033;-64
2021/06/28 04:01:48;;;;;;;16.73;8.85;;;;;;;;;;5013178;28;20118;-64
2021/06/28 04:04:14;;;;;;;13.98;8.65;;;;;;;;;;5013404;28;20026;-63
2021/06/28 04:06:40;;;;;;;21.60;9.25;;;;;;;;;;5013344;28;20109;-64
2021/06/28 04:09:07;;;;;;;17.25;9.05;;;;;;;;;;5013332;28;20034;-63
2021/06/28 04:11:36;;;;;;;17.92;9.05;;;;;;;;;;5013382;28;20068;-63
2021/06/28 04:14:02;;;;;;;21.75;9.50;;;;;;;;;;5013248;28;20030;-63
2021/06/28 04:16:29;;;;;;;18.60;8.68;;;;;;;;;;5013246;28;20105;-64
2021/06/28 04:18:55;;;;;;;15.98;8.75;;;;;;;;;;5013272;28;20033;-64
2021/06/28 04:21:22;;;;;;;11.55;7.47;;;;;;;;;;5013542;28;20546;-64
2021/06/28 04:23:48;;;;;;;21.23;9.15;;;;;;;;;;5013194;28;20113;-65
2021/06/28 04:26:14;;;;;;;20.02;8.13;;;;;;;;;;5013222;28;20462;-63
2021/06/28 04:28:40;;;;;;;16.52;8.30;;;;;;;;;;5013114;28;20462;-63
2021/06/28 04:31:06;;;;;;;13.57;8.32;;;;;;;;;;5011939;28;20493;-63
2021/06/28 04:33:33;;;;;;;14.15;7.85;;;;;;;;;;5013234;28;20026;-63
2021/06/28 04:35:59;;;;;;;16.73;7.93;;;;;;;;;;5011629;28;20057;-64
2021/06/28 04:38:26;;;;;;;24.48;9.88;;;;;;;;;;5013026;28;20060;-64
2021/06/28 04:40:52;;;;;;;19.83;7.82;;;;;;;;;;5012793;28;20026;-64
2021/06/28 04:43:18;;;;;;;11.07;7.57;;;;;;;;;;5011729;28;20384;-63
2021/06/28 04:45:45;;;;;;;16.27;8.07;;;;;;;;;;5012951;28;20076;-66
2021/06/28 04:48:12;;;;;;;15.68;8.65;;;;;;;;;;5011675;28;20118;-64
2021/06/28 04:50:38;;;;;;;14.35;7.68;;;;;;;;;;5011612;28;20026;-65
2021/06/28 04:53:04;;;;;;;14.85;7.75;;;;;;;;;;5012728;28;20029;-66
2021/06/28 04:55:30;;;;;;;15.18;8.23;;;;;;;;;;5012644;28;20029;-65
2021/06/28 04:57:56;;;;;;;16.33;7.60;;;;;;;;;;5013371;28;20030;-64
2021/06/28 05:00:23;;;;;;;12.63;7.40;;;;;;;;;;5016349;28;20601;-65
2021/06/28 05:02:50;;;;;;;13.98;7.50;;;;;;;;;;5016642;28;20048;-65
2021/06/28 05:05:16;;;;;;;17.00;7.40;;;;;;;;;;5017525;28;20143;-63
2021/06/28 05:07:43;;;;;;;16.98;8.15;;;;;;;;;;5016411;28;20117;-65
2021/06/28 05:10:09;;;;;;;26.48;9.35;;;;;;;;;;5015226;28;20390;-63
2021/06/28 05:12:36;;;;;;;14.10;8.10;;;;;;;;;;5016543;28;20018;-65
2021/06/28 05:15:03;;;;;;;17.95;9.30;;;;;;;;;;5016334;28;20156;-64
2021/06/28 05:17:29;;;;;;;12.13;8.52;;;;;;;;;;5016313;28;20034;-62
2021/06/28 05:19:55;;;;;;;18.75;10.35;;;;;;;;;;5016049;28;20466;-63
2021/06/28 05:22:22;;;;;;;21.17;10.85;;;;;;;;;;5015002;28;20097;-63
2021/06/28 05:24:48;;;;;;;26.52;8.93;;;;;;;;;;5014958;28;20033;-63
2021/06/28 05:27:14;;;;;;;21.80;8.90;;;;;;;;;;5016460;28;20062;-64
2021/06/28 05:29:40;;;;;;;13.70;8.75;;;;;;;;;;5015524;28;20488;-64
2021/06/28 05:32:06;;;;;;;49.72;10.18;;;;;;;;;;5035205;28;20029;-63
2021/06/28 05:34:33;;;;;;;21.88;9.30;;;;;;;;;;5035169;28;20537;-64
2021/06/28 05:36:59;;;;;;;14.90;10.10;;;;;;;;;;5035689;28;20091;-64
2021/06/28 05:39:26;;;;;;;19.63;11.07;;;;;;;;;;5034055;28;20033;-64
2021/06/28 05:41:52;;;;;;;22.33;10.57;;;;;;;;;;5035537;28;20022;-63
2021/06/28 05:44:18;;;;;;;18.85;9.55;;;;;;;;;;5033809;28;20065;-64
2021/06/28 05:46:44;;;;;;;22.25;8.25;;;;;;;;;;5034018;28;20057;-66
2021/06/28 05:49:10;;;;;;;15.68;8.18;;;;;;;;;;5035402;28;20045;-65
2021/06/28 05:51:37;;;;;;;12.98;6.85;;;;;;;;;;5034155;28;20018;-65
2021/06/28 05:54:03;;;;;;;21.85;6.95;;;;;;;;;;5035277;28;20069;-64
2021/06/28 05:56:29;;;;;;;22.25;7.38;;;;;;;;;;5035007;28;20479;-65
2021/06/28 05:58:56;;;;;;;4.90;3.72;;;;;;;;;;5035199;28;20040;-63
2021/06/28 06:01:22;;;;;;;27.40;4.47;;;;;;;;;;5033671;28;20116;-64
2021/06/28 06:03:48;;;;;;;18.17;5.20;;;;;;;;;;5035119;28;20371;-63
2021/06/28 06:06:15;;;;;;;11.90;4.90;;;;;;;;;;5035162;28;20104;-65
2021/06/28 06:08:41;;;;;;;9.27;5.00;;;;;;;;;;5033500;28;20108;-66
2021/06/28 06:11:08;;;;;;;11.52;5.78;;;;;;;;;;5035345;28;20462;-65
2021/06/28 06:13:35;;;;;;;16.73;6.32;;;;;;;;;;5034887;28;20052;-64
2021/06/28 06:16:01;;;;;;;8.60;3.80;;;;;;;;;;5034455;28;20505;-64
2021/06/28 06:18:27;;;;;;;15.93;4.47;;;;;;;;;;5033683;28;20034;-65
2021/06/28 06:20:53;;;;;;;16.92;6.28;;;;;;;;;;5033583;28;20448;-65
2021/06/28 06:23:20;;;;;;;16.85;7.40;;;;;;;;;;5034916;28;20070;-63
2021/06/28 06:25:46;;;;;;;13.45;5.20;;;;;;;;;;5033330;28;20022;-65
2021/06/28 06:28:13;;;;;;;14.30;6.45;;;;;;;;;;5034716;28;20076;-66
2021/06/28 06:30:39;;;;;;;8.75;3.78;;;;;;;;;;5034298;28;20446;-63
2021/06/28 06:33:05;;;;;;;6.78;3.92;;;;;;;;;;5033345;28;20029;-63
2021/06/28 06:35:32;;;;;;;15.90;5.25;;;;;;;;;;5032304;28;20493;-63
2021/06/28 06:37:59;;;;;;;11.27;4.47;;;;;;;;;;5014790;28;20040;-64
2021/06/28 06:40:26;;;;;;;9.10;4.68;;;;;;;;;;5013344;28;20018;-66
2021/06/28 06:42:53;;;;;;;8.38;3.97;;;;;;;;;;5014998;28;20479;-63
2021/06/28 06:45:20;;;;;;;8.98;4.40;;;;;;;;;;5013321;28;20042;-63
2021/06/28 06:47:46;;;;;;;12.82;4.60;;;;;;;;;;5014564;28;20022;-63
2021/06/28 06:50:13;;;;;;;11.88;4.43;;;;;;;;;;5013212;28;20109;-63
2021/06/28 06:52:39;;;;;;;13.43;4.53;;;;;;;;;;5014366;28;20124;-63
2021/06/28 06:55:07;;;;;;;7.97;3.70;;;;;;;;;;5014286;28;20033;-64
2021/06/28 06:57:34;;;;;;;8.82;3.20;;;;;;;;;;5014459;28;20029;-64
2021/06/28 07:00:03;;;;;;;9.93;4.03;;;;;;;;;;5012977;28;20125;-64
2021/06/28 07:02:29;;;;;;;6.45;2.90;;;;;;;;;;5014307;28;20104;-64
2021/06/28 07:04:55;;;;;;;7.93;3.63;;;;;;;;;;5013999;28;20061;-63
2021/06/28 07:07:21;;;;;;;3.08;2.28;;;;;;;;;;5012823;28;20029;-63
2021/06/28 07:09:48;;;;;;;2.78;1.75;;;;;;;;;;5014097;28;20026;-63
2021/06/28 07:12:14;;;;;;;2.25;1.73;;;;;;;;;;5014139;28;20486;-63
2021/06/28 07:14:40;;;;;;;2.88;1.83;;;;;;;;;;5012620;28;20124;-63
2021/06/28 07:17:06;;;;;;;2.97;2.58;;;;;;;;;;5011571;28;20030;-63
2021/06/28 07:19:32;;;;;;;2.95;2.10;;;;;;;;;;5014231;28;20470;-63
2021/06/28 07:21:59;;;;;;;3.28;2.33;;;;;;;;;;5013068;28;20466;-64
2021/06/28 07:24:25;;;;;;;2.55;1.95;;;;;;;;;;5013915;28;20160;-63
2021/06/28 07:26:51;;;;;;;6.63;2.30;;;;;;;;;;5013499;28;20095;-63
2021/06/28 07:29:18;;;;;;;10.80;2.35;;;;;;;;;;5014107;28;20030;-63
2021/06/28 07:31:44;;;;;;;4.00;2.58;;;;;;;;;;5012472;28;20022;-62
2021/06/28 07:34:10;;;;;;;3.58;2.33;;;;;;;;;;5011267;28;20079;-63
2021/06/28 07:36:36;;;;;;;12.63;4.43;;;;;;;;;;5013655;28;20037;-62
2021/06/28 07:39:03;;;;;;;3.92;2.50;;;;;;;;;;5013604;28;20029;-62
2021/06/28 07:41:30;;;;;;;12.48;3.83;;;;;;;;;;5012265;28;20474;-62
2021/06/28 07:43:58;;;;;;;3.85;2.22;;;;;;;;;;5013618;28;20033;-64
2021/06/28 07:46:24;;;;;;;4.22;2.40;;;;;;;;;;5013485;28;20063;-63
2021/06/28 07:48:50;;;;;;;8.85;2.50;;;;;;;;;;5012122;28;20033;-63
2021/06/28 07:51:16;;;;;;;9.05;3.47;;;;;;;;;;5012137;28;20076;-64
2021/06/28 07:53:43;;;;;;;8.15;3.17;;;;;;;;;;5013131;28;20076;-64
2021/06/28 07:56:17;;;;;;;8.20;2.92;;;;;;;;;;5013400;28;20102;-63
2021/06/28 07:58:45;;;;;;;4.75;2.70;;;;;;;;;;5013479;28;20104;-64
2021/06/28 08:01:11;;;;;;;6.30;2.90;;;;;;;;;;5012858;28;20027;-65
2021/06/28 08:03:47;;;;;;;8.80;3.22;;;;;;;;;;5013396;28;20033;-65
2021/06/28 08:06:14;;;;;;;7.50;2.58;;;;;;;;;;5013328;28;20044;-64
2021/06/28 08:08:40;;;;;;;2.95;2.47;;;;;;;;;;5013020;28;20096;-64
2021/06/28 08:11:08;;;;;;;3.80;2.50;;;;;;;;;;5013270;28;20026;-64
2021/06/28 08:13:35;;;;;;;3.80;2.72;;;;;;;;;;5013149;28;20061;-63
2021/06/28 08:16:01;;;;;;;4.32;2.75;;;;;;;;;;5013156;28;20104;-64
2021/06/28 08:18:28;;;;;;;6.88;2.70;;;;;;;;;;5013142;28;20068;-64
2021/06/28 08:20:55;;;;;;;9.02;3.20;;;;;;;;;;5012987;28;20050;-65
2021/06/28 08:23:21;;;;;;;7.47;2.85;;;;;;;;;;5011940;28;20030;-64
2021/06/28 08:25:47;;;;;;;7.05;2.85;;;;;;;;;;5011517;28;20133;-64
2021/06/28 08:28:13;;;;;;;4.68;2.65;;;;;;;;;;5012077;28;20101;-64
2021/06/28 08:30:40;;;;;;;8.70;2.47;;;;;;;;;;5012026;28;20022;-64
2021/06/28 08:33:06;;;;;;;7.82;2.72;;;;;;;;;;5014728;28;20104;-66
2021/06/28 08:35:32;;;;;;;3.60;2.22;;;;;;;;;;5014310;28;20057;-64
2021/06/28 08:37:59;;;;;;;25.73;4.75;;;;;;;;;;5016648;28;20053;-65
2021/06/28 08:40:25;;;;;;;10.82;4.15;;;;;;;;;;5016943;28;20018;-65
2021/06/28 08:42:52;;;;;;;11.63;4.32;;;;;;;;;;5016895;28;20485;-66
2021/06/28 08:45:18;;;;;;;9.65;2.88;;;;;;;;;;5015342;28;20041;-65
2021/06/28 08:47:44;;;;;;;5.53;2.55;;;;;;;;;;5017023;28;20026;-65
2021/06/28 08:50:11;;;;;;;4.38;2.58;;;;;;;;;;5016782;28;20382;-64
2021/06/28 08:52:39;;;;;;;3.38;1.90;;;;;;;;;;5016756;28;20033;-63
2021/06/28 08:55:07;;;;;;;1.92;1.48;;;;;;;;;;5016558;28;20030;-64
2021/06/28 08:57:33;;;;;;;6.28;1.60;;;;;;;;;;5016901;28;20136;-64
2021/06/28 08:59:59;;;;;;;3.55;2.05;;;;;;;;;;5016818;28;20022;-64
2021/06/28 09:02:26;;;;;;;4.65;2.03;;;;;;;;;;5016334;28;20446;-64
2021/06/28 09:05:02;;;;;;;2.28;2.05;;;;;;;;;;5016826;28;20037;-65
2021/06/28 09:07:29;;;;;;;3.67;2.20;;;;;;;;;;5016453;28;20026;-65
2021/06/28 09:09:55;;;;;;;4.93;2.10;;;;;;;;;;5016258;28;20072;-65
2021/06/28 09:12:22;;;;;;;2.67;2.00;;;;;;;;;;5016306;28;20022;-67
2021/06/28 09:14:54;;;;;;;1.67;1.58;;;;;;;;;;5016330;28;20120;-65
2021/06/28 09:17:39;;;;;;;4.57;1.85;;;;;;;;;;5016026;28;20478;-64
2021/06/28 09:20:16;;;;;;;4.03;2.40;;;;;;;;;;5016348;28;20528;-65
2021/06/28 09:22:43;;;;;;;2.30;2.10;;;;;;;;;;5014523;28;20045;-64
2021/06/28 09:25:28;;;;;;;7.05;3.25;;;;;;;;;;5016056;28;20037;-63
2021/06/28 09:27:54;;;;;;;4.88;3.00;;;;;;;;;;5016095;28;20018;-64
2021/06/28 09:30:21;;;;;;;7.18;2.75;;;;;;;;;;5015877;28;20065;-63
2021/06/28 09:32:51;;;;;;;2.58;2.25;;;;;;;;;;5015916;28;20025;-64
2021/06/28 09:35:27;;;;;;;5.38;2.60;;;;;;;;;;5015370;28;20478;-64
2021/06/28 09:37:57;;;;;;;9.98;2.80;;;;;;;;;;5014342;28;20077;-64
2021/06/28 09:40:26;;;;;;;5.20;2.10;;;;;;;;;;5015693;28;20017;-65
2021/06/28 09:42:52;;;;;;;6.10;2.28;;;;;;;;;;5014401;28;20029;-65
2021/06/28 09:45:21;;;;;;;3.17;2.20;;;;;;;;;;5014959;28;20036;-64
2021/06/28 09:47:49;;;;;;;3.47;2.25;;;;;;;;;;5015652;28;20022;-66
2021/06/28 09:50:20;;;;;;;6.82;1.80;;;;;;;;;;5014377;28;20118;-67
2021/06/28 09:52:49;;;;;;;3.00;2.10;;;;;;;;;;5015556;28;20029;-64
2021/06/28 09:55:20;;;;;;;6.55;2.30;;;;;;;;;;5014298;28;20036;-66
2021/06/28 09:58:04;;;;;;;2.50;2.17;;;;;;;;;;5015624;28;20022;-64
2021/06/28 10:00:31;;;;;;;2.33;2.08;;;;;;;;;;5015483;28;20021;-64
2021/06/28 10:02:58;;;;;;;2.05;1.90;;;;;;;;;;5015485;28;20084;-64
2021/06/28 10:05:39;;;;;;;6.60;2.17;;;;;;;;;;5015420;28;20034;-64
2021/06/28 10:08:14;;;;;;;4.20;2.30;;;;;;;;;;5014725;28;20511;-63
2021/06/28 10:10:40;;;;;;;4.13;2.00;;;;;;;;;;5014845;28;20481;-64
2021/06/28 10:13:09;;;;;;;4.72;2.40;;;;;;;;;;5015073;28;20018;-64
2021/06/28 10:15:37;;;;;;;7.18;2.33;;;;;;;;;;5015069;28;20026;-65
2021/06/28 10:18:04;;;;;;;5.22;2.50;;;;;;;;;;5013260;28;20030;-63
2021/06/28 10:20:32;;;;;;;6.05;2.50;;;;;;;;;;5013839;28;20108;-65
2021/06/28 10:22:59;;;;;;;3.60;1.98;;;;;;;;;;5014953;28;20044;-63
2021/06/28 10:25:26;;;;;;;2.92;2.22;;;;;;;;;;5014589;28;20021;-62
2021/06/28 10:27:53;;;;;;;6.22;2.97;;;;;;;;;;5013101;28;20029;-64
2021/06/28 10:30:21;;;;;;;3.58;2.35;;;;;;;;;;5013075;28;20509;-63
2021/06/28 10:32:50;;;;;;;4.60;2.40;;;;;;;;;;5014155;28;20108;-66
2021/06/28 10:35:21;;;;;;;3.17;2.40;;;;;;;;;;5013786;28;20057;-65
2021/06/28 10:37:48;;;;;;;3.20;2.38;;;;;;;;;;5013257;28;20030;-64
2021/06/28 10:40:23;;;;;;;2.15;2.05;;;;;;;;;;5014785;28;20487;-67
2021/06/28 10:42:50;;;;;;;3.33;2.53;;;;;;;;;;5014785;28;20049;-65
2021/06/28 10:45:17;;;;;;;3.15;2.60;;;;;;;;;;5014685;28;20026;-64
2021/06/28 10:48:02;;;;;;;3.30;2.33;;;;;;;;;;5014542;28;20470;-66
2021/06/28 10:50:47;;;;;;;4.00;2.58;;;;;;;;;;5014250;28;20112;-65
2021/06/28 10:53:14;;;;;;;7.43;2.63;;;;;;;;;;5014488;28;20026;-65
2021/06/28 10:55:41;;;;;;;2.80;2.60;;;;;;;;;;5012193;28;20120;-66
2021/06/28 10:58:24;;;;;;;4.60;2.53;;;;;;;;;;5013124;28;20030;-67
2021/06/28 11:00:54;;;;;;;5.03;2.88;;;;;;;;;;5014323;28;20462;-67
2021/06/28 11:03:23;;;;;;;2.53;2.33;;;;;;;;;;5014314;28;20022;-66
2021/06/28 11:06:25;;;;;;;2.75;2.55;;;;;;;;;;5012808;28;20031;-67
2021/06/28 11:08:58;;;;;;;3.45;2.90;;;;;;;;;;4972683;28;20070;-65
2021/06/28 11:11:43;;;;;;;5.97;3.08;;;;;;;;;;4972743;28;20034;-65
2021/06/28 11:14:29;;;;;;;2.70;2.50;;;;;;;;;;4970441;28;20031;-65
2021/06/28 11:17:06;;;;;;;2.47;2.28;;;;;;;;;;4964851;28;20034;-65
2021/06/28 11:20:06;;;;;;;2.50;2.20;;;;;;;;;;4976064;28;20035;-64
2021/06/28 11:22:33;;;;;;;3.78;2.95;;;;;;;;;;4972624;28;20126;-66
2021/06/28 11:25:08;;;;;;;2.60;2.40;;;;;;;;;;4972318;28;20043;-66
2021/06/28 11:38:16;;;;;;;3.08;2.22;;;;;;;;;;5151503;27;20378;-66
2021/06/28 11:40:45;;;;;;;2.72;2.05;;;43.00;48.80;;;;;;5151924;27;20383;-67
2021/06/28 11:43:11;;;;;;;5.22;2.67;;;42.70;42.90;;;;;;5151779;27;20029;-65
2021/06/28 11:45:47;;;;;;;4.15;2.25;;;43.10;44.00;;;;;;5133165;27;20072;-67
2021/06/28 11:48:34;;;;;;;2.83;2.40;;;43.70;43.50;;;;;;5133230;27;20023;-67
2021/06/28 11:51:01;;;;;;;3.58;2.40;;;;;;;;;;5151386;27;20058;-66
2021/06/28 11:53:27;;;;;;;2.42;2.25;;;44.20;43.30;;;;;;5151382;27;20026;-67
2021/06/28 11:55:53;;;;;;;3.55;2.20;;;;;;;;;;5151307;27;20034;-66
2021/06/28 11:58:25;;;;;;;2.75;2.08;;;;;;;;;;5132890;27;20492;-69
2021/06/28 12:01:03;;;;;;;2.13;1.98;;;;;;;;;;5151127;27;20011;-68
2021/06/28 12:03:36;;;;;;;2.65;2.42;;;;;;;;;;5151058;27;20025;-66
2021/06/28 12:06:09;;;;;;;2.67;2.22;;;45.60;41.70;;;;;;5151413;27;20083;-66
2021/06/28 12:08:36;;;;;;;4.40;2.25;;;45.80;39.60;;;;;;5151322;27;20031;-67
2021/06/28 12:11:02;;;;;;;5.95;2.30;;;46.00;40.00;;;;;;5151234;27;20062;-68
2021/06/28 12:13:33;;;;;;;3.28;2.10;;;46.40;38.20;;;;;;5150831;27;20104;-68
2021/06/28 12:16:32;;;;;;;5.60;2.03;;;;;;;;;;5151148;27;20054;-67
2021/06/28 12:19:07;;;;;;;2.10;1.90;;;46.90;38.90;;;;;;5049403;28;20115;-68
2021/06/28 12:21:36;;;;;;;2.25;2.10;;;47.20;38.60;;;;;;5049793;28;20045;-68
2021/06/28 12:24:08;;;;;;;3.38;2.08;;;47.20;38.60;;;;;;5066729;28;20115;-68
2021/06/28 12:26:35;;;;;;;2.40;2.13;;;47.40;39.40;;;;;;5066675;28;20094;-68
2021/06/28 12:29:33;;;;;;;2.50;2.30;;;47.70;38.10;;;;;;5066515;28;20036;-68
2021/06/28 12:32:04;;;;;;;3.45;2.25;;;47.70;37.80;;;;;;5048577;28;20032;-67
2021/06/28 12:34:31;;;;;;;5.22;2.50;;;48.70;50.50;;;;;;5066474;28;20044;-69
2021/06/28 12:36:58;;;;;;;1.95;1.85;;;48.60;37.00;;;;;;5064651;28;20060;-68
2021/06/28 12:39:31;;;;;;;3.22;2.38;;;48.70;36.70;;;;;;5051794;28;20025;-68
2021/06/28 12:42:15;;;;;;;2.50;2.30;;;48.60;36.80;;;;;;5035867;28;20120;-67
2021/06/28 12:44:42;;;;;;;2.40;2.20;;;49.20;64.50;;;;;;5052819;28;20025;-67
2021/06/28 12:47:10;;;;;;;2.95;2.45;;;49.10;36.20;;;;;;5052547;28;20033;-66
2021/06/28 12:49:37;;;;;;;2.67;2.47;;;49.10;36.60;;;;;;5035886;28;20036;-67
2021/06/28 12:52:22;;;;;;;3.97;2.40;;;49.40;36.50;;;;;;5052476;28;20056;-65
2021/06/28 12:55:08;;;;;;;2.50;2.40;;;49.80;70.50;;;;;;5103794;27;20031;-65
2021/06/28 12:57:36;;;;;;;3.13;2.60;;;48.70;35.30;;;;;;5118067;27;20068;-68
2021/06/28 13:00:18;;;;;;;2.65;2.25;;;48.40;36.20;;;;;;5136666;27;20034;-68
2021/06/28 13:03:12;;;;;;;4.28;2.50;;;49.10;47.70;;;;;;5117950;27;20114;-67
2021/06/28 13:05:40;;;;;;;2.90;2.13;;;49.00;35.60;;;;;;5135586;27;20554;-67
2021/06/28 13:08:10;;;;;;;2.95;2.13;;;49.70;45.20;;;;;;5117918;27;20080;-66
2021/06/28 13:10:39;;;;;;;3.53;2.45;;;;;;;;;;5136275;27;20216;-66
2021/06/28 13:13:22;;;;;;;4.70;2.88;;;;;;;;;;5117564;27;20076;-66
2021/06/28 13:16:08;;;;;;;4.18;2.88;;;50.30;34.80;;;;;;5136261;27;20485;-68
2021/06/28 13:18:34;;;;;;;2.58;2.38;;;50.60;35.50;;;;;;5136031;27;20470;-67
2021/06/28 13:21:02;;;;;;;3.60;2.08;;;51.10;35.10;;;;;;5135910;27;20036;-67
2021/06/28 13:23:28;;;;;;;7.13;2.80;;;50.90;34.30;;;;;;5135783;27;20031;-68
2021/06/28 13:25:53;;;;;;;2.60;2.40;;;50.80;34.70;;;;;;5136151;27;20023;-70
2021/06/28 13:28:19;;;;;;;2.63;2.50;;;51.20;34.70;;;;;;5135723;27;20034;-68
2021/06/28 13:30:45;;;;;;;4.78;2.47;;;51.10;34.30;;;;;;5136024;27;20050;-68
2021/06/28 13:33:13;;;;;;;2.40;2.30;;;51.50;34.00;;;;;;5135858;27;20062;-66
2021/06/28 13:35:42;;;;;;;3.70;2.88;;;51.70;34.40;;;;;;5117123;27;20080;-67
2021/06/28 13:38:11;;;;;;;3.83;2.85;;;52.00;34.20;;;;;;5135872;27;20459;-68
2021/06/28 13:40:39;;;;;;;2.88;2.58;;;51.90;33.60;;;;;;5135813;27;20470;-69
2021/06/28 13:43:06;;;;;;;7.35;2.90;;;52.00;33.80;;;;;;5135512;27;20428;-66
2021/06/28 13:45:40;;;;;;;4.68;2.50;;;52.30;33.80;;;;;;5117273;27;20059;-69
2021/06/28 13:48:14;;;;;;;2.65;2.45;;;52.40;33.60;;;;;;5135504;27;20564;-66
2021/06/28 13:50:44;;;;;;;2.25;2.13;;;52.40;33.30;;;;;;5116187;27;20027;-66
2021/06/28 13:53:11;;;;;;;2.38;2.05;;;52.40;33.80;;;;;;5135541;27;20023;-69
2021/06/28 13:55:41;;;;;;;2.05;1.95;;;52.50;33.50;;;;;;5135454;27;20493;-66
2021/06/28 13:58:08;;;;;;;2.33;2.20;;;52.40;33.80;;;;;;5135462;27;20103;-67
2021/06/28 14:00:47;;;;;;;2.80;2.00;;;52.60;33.90;;;;;;5135364;27;20076;-68
2021/06/28 14:03:15;;;;;;;3.20;2.03;;;52.60;33.10;;;;;;5116717;27;20051;-68
2021/06/28 14:05:42;;;;;;;2.10;2.00;;;52.70;33.10;;;;;;5117035;27;20387;-67
2021/06/28 14:08:09;;;;;;;2.75;2.40;;;52.50;33.10;;;;;;5135213;27;20519;-67
2021/06/28 14:10:36;;;;;;;2.58;2.28;;;52.90;32.60;;;;;;5116648;27;20027;-68
2021/06/28 14:13:04;;;;;;;2.40;2.30;;;52.50;32.50;;;;;;5134993;27;20103;-68
2021/06/28 14:15:30;;;;;;;2.90;2.38;;;52.80;32.60;;;;;;5134523;27;20424;-68
2021/06/28 14:17:56;;;;;;;2.60;2.40;;;53.00;32.60;;;;;;5134938;27;20031;-69
2021/06/28 14:20:23;;;;;;;2.42;2.22;;;52.30;33.10;;;;;;5135036;27;20383;-67
2021/06/28 14:22:50;;;;;;;3.65;2.17;;;52.70;33.00;;;;;;5134977;27;20027;-70
2021/06/28 14:25:18;;;;;;;2.85;2.38;;;52.30;33.30;;;;;;5134979;27;20102;-69
2021/06/28 14:27:45;;;;;;;4.00;2.15;;;52.00;33.00;;;;;;5134818;27;20110;-67
2021/06/28 14:30:13;;;;;;;3.17;2.60;;;51.80;33.50;;;;;;5134797;27;20023;-70
2021/06/28 14:32:40;;;;;;;2.60;2.42;;;52.00;36.90;;;;;;5134773;27;20015;-68